This is the latest recevied weather packets stored in our database for station/object DH0DM-13. If no packets are shown the sender has not sent any weather packets the latest 10 day(s).
| Time | Temp. | Humidity | Pressure | Rain* | Wind** | Luminosity | Snow |
|---|---|---|---|---|---|---|---|
| 1777323417 | 5° C | 78% | 995 hPa | 0 mm | 0 m/s | - | - |
| 1777322817 | 5.56° C | 77% | 995 hPa | 0 mm | 0 m/s | - | - |
| 1777322216 | 5.56° C | 76% | 995.1 hPa | 0 mm | 0 m/s | - | - |
| 1777321615 | 5.56° C | 75% | 995 hPa | 0 mm | 0 m/s | - | - |
| 1777321014 | 6.11° C | 74% | 994.8 hPa | 0 mm | 0 m/s | - | - |
| 1777320413 | 6.67° C | 73% | 995 hPa | 0 mm | 0.45 m/s, 106° | - | - |
| 1777319812 | 6.67° C | 72% | 994.9 hPa | 0 mm | 0 m/s | - | - |
| 1777319211 | 7.22° C | 70% | 994.7 hPa | 0 mm | 0 m/s | - | - |
| 1777318610 | 7.22° C | 71% | 994.9 hPa | 0 mm | 0 m/s | - | - |
| 1777318010 | 7.22° C | 69% | 994.7 hPa | 0 mm | 0 m/s | - | - |
| 1777317409 | 7.78° C | 69% | 994.8 hPa | 0 mm | 0 m/s | - | - |
| 1777316808 | 8.33° C | 66% | 994.9 hPa | 0 mm | 0 m/s | - | - |
| 1777316207 | 8.89° C | 63% | 994.8 hPa | 0 mm | 0 m/s | - | - |
| 1777315606 | 10° C | 58% | 994.9 hPa | 0 mm | 0 m/s | - | - |
| 1777315005 | 10.56° C | 53% | 994.8 hPa | 0 mm | 0 m/s | - | - |
| 1777314404 | 11.67° C | 55% | 994.8 hPa | 0 mm | 0 m/s | - | - |
| 1777313804 | 12.78° C | 51% | 994.6 hPa | 0 mm | 0.45 m/s, 279° | - | - |
| 1777313203 | 13.33° C | 45% | 994.4 hPa | 0 mm | 0 m/s | - | - |
| 1777312602 | 14.44° C | 41% | 994.7 hPa | 0 mm | 0 m/s | - | - |
| 1777312001 | 14.44° C | 40% | 994.6 hPa | 0 mm | 0.89 m/s, 308° | - | - |
| 1777311400 | 14.44° C | 40% | 994.6 hPa | 0 mm | 0.89 m/s, 313° | - | - |
| 1777310799 | 15° C | 40% | 994.5 hPa | 0 mm | 0.89 m/s, 319° | - | - |
| 1777310198 | 15° C | 42% | 994.6 hPa | 0 mm | 0 m/s | - | - |
| 1777309597 | 15° C | 39% | 994.6 hPa | 0 mm | 1.79 m/s, 329° | - | - |
| 1777308996 | 15° C | 36% | 994.5 hPa | 0 mm | 2.24 m/s, 337° | - | - |
* Rain since midnight (hover to see other rain measurements)
** Current wind speed in m/s (hover to see current wind gust speed)